Latest Weather Observations for Colpoys Point

IDW60801

Issued at 8:33 am WST Tuesday 16 August 2022 (issued every 10 minutes, with the page automatically refreshed every 10 minutes)

About weather observations | Map of weather stations | Latest weather observations for WA | Other Formats
Station Details ID: 009255 Name: COLPOYS POINT Lat: -32.23 Lon: 115.70 Height: 3.0 m
Data from the previous 72 hours. | See also: Recent months for locations in Western Australia
Date/Time
WST
Temp
°C
App
Temp
°C
Dew
Point
°C
Rel
Hum
%
Delta-T
°C
Wind Press
QNH
hPa
Press
MSL
hPa
Rain since
9am
mm
Dir  Spd
km/h
Gust
km/h
Spd
kts
Gust
kts
16/08:30am - - - - - W 33 48 18 26 - - -
16/08:21am - - - - - W 30 48 16 26 - - -
16/08:00am - - - - - W 28 44 15 24 - - -
16/07:40am - - - - - W 28 48 15 26 - - -
16/07:30am - - - - - W 24 32 13 17 - - -
16/07:00am - - - - - WNW 24 33 13 18 - - -
16/06:30am - - - - - W 26 33 14 18 - - -
16/06:00am - - - - - W 24 35 13 19 - - -
16/05:30am - - - - - W 28 43 15 23 - - -
16/05:00am - - - - - W 30 43 16 23 - - -
16/04:30am - - - - - WNW 24 37 13 20 - - -
16/04:00am - - - - - W 24 33 13 18 - - -
16/03:30am - - - - - W 28 39 15 21 - - -
16/03:00am - - - - - W 24 35 13 19 - - -
16/02:30am - - - - - NW 26 43 14 23 - - -
16/02:00am - - - - - N 28 39 15 21 - - -
16/01:30am - - - - - N 30 41 16 22 - - -
16/01:00am - - - - - N 43 56 23 30 - - -
16/12:30am - - - - - N 41 50 22 27 - - -
16/12:00am - - - - - N 43 54 23 29 - - -
 
Date/Time
WST
Temp
°C
App
Temp
°C
Dew
Point
°C
Rel
Hum
%
Delta-T
°C
Wind Press
QNH
hPa
Press
MSL
hPa
Rain since
9am
mm
Dir  Spd
km/h
Gust
km/h
Spd
kts
Gust
kts
15/11:30pm - - - - - NNE 44 52 24 28 - - -
15/11:00pm - - - - - NNE 33 46 18 25 - - -
15/10:30pm - - - - - NNE 28 32 15 17 - - -
15/10:00pm - - - - - NNE 24 30 13 16 - - -
15/09:30pm - - - - - NE 24 32 13 17 - - -
15/09:00pm - - - - - NE 22 26 12 14 - - -
15/08:30pm - - - - - NE 15 17 8 9 - - -
15/08:00pm - - - - - CALM 0 6 0 3 - - -
15/07:30pm - - - - - NNW 2 9 1 5 - - -
15/07:00pm - - - - - NNE 9 13 5 7 - - -
15/06:30pm - - - - - NE 15 19 8 10 - - -
15/06:00pm - - - - - NE 13 15 7 8 - - -
15/05:30pm - - - - - NE 13 15 7 8 - - -
15/05:00pm - - - - - ENE 11 13 6 7 - - -
15/04:30pm - - - - - NE 11 13 6 7 - - -
15/04:00pm - - - - - NE 13 17 7 9 - - -
15/03:30pm - - - - - NNW 13 19 7 10 - - -
15/03:00pm - - - - - NW 13 20 7 11 - - -
15/02:30pm - - - - - NW 20 32 11 17 - - -
15/02:00pm - - - - - NNW 22 33 12 18 - - -
15/01:30pm - - - - - N 24 33 13 18 - - -
15/01:00pm - - - - - NNW 26 39 14 21 - - -
15/12:30pm - - - - - NNW 22 35 12 19 - - -
15/12:00pm - - - - - NNW 22 32 12 17 - - -
15/11:30am - - - - - NNE 28 32 15 17 - - -
15/11:00am - - - - - NNE 24 28 13 15 - - -
15/10:30am - - - - - NNE 30 33 16 18 - - -
15/10:00am - - - - - NNE 28 32 15 17 - - -
15/09:30am - - - - - NNE 28 35 15 19 - - -
15/09:00am - - - - - NNE 26 32 14 17 - - -
15/08:30am - - - - - NNE 28 33 15 18 - - -
15/08:00am - - - - - NE 30 37 16 20 - - -
15/07:30am - - - - - NE 24 28 13 15 - - -
15/07:00am - - - - - NE 26 30 14 16 - - -
15/06:30am - - - - - NE 26 32 14 17 - - -
15/06:00am - - - - - NE 26 30 14 16 - - -
15/05:30am - - - - - NE 26 30 14 16 - - -
15/05:00am - - - - - NE 26 30 14 16 - - -
15/04:30am - - - - - NE 24 28 13 15 - - -
15/04:00am - - - - - NE 24 28 13 15 - - -
15/03:30am - - - - - NE 22 26 12 14 - - -
15/03:00am - - - - - NE 28 33 15 18 - - -
15/02:30am - - - - - ENE 28 32 15 17 - - -
15/02:00am - - - - - ENE 30 33 16 18 - - -
15/01:30am - - - - - NE 30 35 16 19 - - -
15/01:00am - - - - - NE 30 33 16 18 - - -
15/12:30am - - - - - NE 26 30 14 16 - - -
15/12:00am - - - - - NE 26 30 14 16 - - -
 
Date/Time
WST
Temp
°C
App
Temp
°C
Dew
Point
°C
Rel
Hum
%
Delta-T
°C
Wind Press
QNH
hPa
Press
MSL
hPa
Rain since
9am
mm
Dir  Spd
km/h
Gust
km/h
Spd
kts
Gust
kts
14/11:30pm - - - - - NE 26 30 14 16 - - -
14/11:00pm - - - - - NE 24 28 13 15 - - -
14/10:30pm - - - - - NE 22 28 12 15 - - -
14/10:00pm - - - - - NE 20 26 11 14 - - -
14/09:30pm - - - - - NE 13 20 7 11 - - -
14/09:00pm - - - - - ENE 13 15 7 8 - - -
14/08:30pm - - - - - E 13 13 7 7 - - -
14/08:00pm - - - - - ENE 11 11 6 6 - - -
14/07:30pm - - - - - E 9 9 5 5 - - -
14/07:00pm - - - - - CALM 0 0 0 0 - - -
14/06:30pm - - - - - CALM 0 0 0 0 - - -
14/06:00pm - - - - - NNW 2 6 1 3 - - -
14/05:30pm - - - - - NNW 7 9 4 5 - - -
14/05:00pm - - - - - N 7 9 4 5 - - -
14/04:30pm - - - - - N 9 11 5 6 - - -
14/04:00pm - - - - - N 11 15 6 8 - - -
14/03:30pm - - - - - N 11 13 6 7 - - -
14/03:00pm - - - - - N 13 17 7 9 - - -
14/02:30pm - - - - - N 13 15 7 8 - - -
14/02:00pm - - - - - N 11 17 6 9 - - -
14/01:30pm - - - - - N 13 15 7 8 - - -
14/01:00pm - - - - - N 13 17 7 9 - - -
14/12:30pm - - - - - NE 11 13 6 7 - - -
14/12:00pm - - - - - NE 13 15 7 8 - - -
14/11:30am - - - - - NE 17 19 9 10 - - -
14/11:00am - - - - - NE 15 19 8 10 - - -
14/10:30am - - - - - ENE 15 19 8 10 - - -
14/10:00am - - - - - NE 17 17 9 9 - - -
14/09:30am - - - - - NE 15 17 8 9 - - -
14/09:00am - - - - - NE 15 17 8 9 - - -
14/08:30am - - - - - NE 15 17 8 9 - - -
14/08:00am - - - - - NE 13 17 7 9 - - -
14/07:30am - - - - - ENE 15 17 8 9 - - -
14/07:00am - - - - - E 13 15 7 8 - - -
14/06:30am - - - - - ENE 13 15 7 8 - - -
14/06:00am - - - - - E 15 17 8 9 - - -
14/05:30am - - - - - ENE 13 17 7 9 - - -
14/05:00am - - - - - SW 11 15 6 8 - - -
14/04:30am - - - - - SW 13 17 7 9 - - -
14/04:00am - - - - - WSW 15 20 8 11 - - -
14/03:30am - - - - - WSW 13 22 7 12 - - -
14/03:00am - - - - - SW 17 22 9 12 - - -
14/02:30am - - - - - WSW 13 17 7 9 - - -
14/02:00am - - - - - SW 17 22 9 12 - - -
14/01:30am - - - - - SW 19 28 10 15 - - -
14/01:00am - - - - - SW 20 28 11 15 - - -
14/12:30am - - - - - SW 28 35 15 19 - - -
14/12:00am - - - - - SW 24 32 13 17 - - -
 
Date/Time
WST
Temp
°C
App
Temp
°C
Dew
Point
°C
Rel
Hum
%
Delta-T
°C
Wind Press
QNH
hPa
Press
MSL
hPa
Rain since
9am
mm
Dir  Spd
km/h
Gust
km/h
Spd
kts
Gust
kts
13/11:30pm - - - - - SW 26 35 14 19 - - -
13/11:00pm - - - - - WSW 24 33 13 18 - - -
13/10:30pm - - - - - WSW 15 26 8 14 - - -
13/10:00pm - - - - - SW 26 39 14 21 - - -
13/09:30pm - - - - - WSW 28 39 15 21 - - -
13/09:00pm - - - - - SW 32 44 17 24 - - -
13/08:30pm - - - - - WSW 32 50 17 27 - - -
13/08:03pm - - - - - WSW 32 50 17 27 - - -
13/08:00pm - - - - - W 32 46 17 25 - - -
13/07:51pm - - - - - W 32 50 17 27 - - -
13/07:30pm - - - - - W 32 46 17 25 - - -
13/07:00pm - - - - - WNW 28 41 15 22 - - -
13/06:50pm - - - - - WNW 35 65 19 35 - - -
13/06:46pm - - - - - WNW 28 48 15 26 - - -
13/06:30pm - - - - - WNW 32 44 17 24 - - -
13/06:00pm - - - - - WNW 20 32 11 17 - - -
13/05:30pm - - - - - W 35 57 19 31 - - -
13/05:20pm - - - - - W 44 65 24 35 - - -
13/05:15pm - - - - - W 44 59 24 32 - - -
13/05:08pm - - - - - WNW 39 57 21 31 - - -
13/05:00pm - - - - - WNW 39 56 21 30 - - -
13/04:49pm - - - - - WNW 35 56 19 30 - - -
13/04:30pm - - - - - WNW 39 54 21 29 - - -
13/04:00pm - - - - - WNW 32 46 17 25 - - -
13/03:36pm - - - - - WNW 37 57 20 31 - - -
13/03:30pm - - - - - WNW 35 50 19 27 - - -
13/03:09pm - - - - - WNW 39 70 21 38 - - -
13/03:04pm - - - - - WNW 30 50 16 27 - - -
13/03:00pm - - - - - NW 26 44 14 24 - - -
13/02:33pm - - - - - WNW 28 48 15 26 - - -
13/02:30pm - - - - - WNW 24 37 13 20 - - -
13/02:00pm - - - - - N 20 30 11 16 - - -
13/01:30pm - - - - - NNW 26 41 14 22 - - -
13/01:10pm - - - - - N 44 74 24 40 - - -
13/01:03pm - - - - - N 54 74 29 40 - - -
13/01:00pm - - - - - N 56 72 30 39 - - -
13/12:49pm - - - - - N 61 82 33 44 - - -
13/12:30pm - - - - - NNE 54 69 29 37 - - -
13/12:26pm - - - - - NNE 50 69 27 37 - - -
13/12:00pm - - - - - N 52 61 28 33 - - -
13/11:30am - - - - - NNE 48 57 26 31 - - -
13/11:00am - - - - - N 46 56 25 30 - - -
13/10:30am - - - - - NNE 46 59 25 32 - - -
13/10:00am - - - - - NNE 39 48 21 26 - - -
13/09:30am - - - - - NE 39 48 21 26 - - -
13/09:00am - - - - - NNE 32 39 17 21 - - -

Other formats

Comma delimited format used in spreadsheet applications
http://www.bom.gov.au/fwo/IDW60801/IDW60801.99255.axf

JavaScript Object Notation format (JSON) in row-major order
http://www.bom.gov.au/fwo/IDW60801/IDW60801.99255.json

Data quality

Most of these data are generated automatically and are frequently updated. Quality checks on data are not normally performed. It is possible for incorrect values to appear. Refer to information at About Latest Weather Observations and please check the disclaimer before using these data.